Time;durP1;ratioP1;P1;durP2;ratioP2;P2;SDS_P1;SDS_P2;PMS_P1;PMS_P2;Temp;Humidity;BMP_temperature;BMP_pressure;BME280_temperature;BME280_humidity;BME280_pressure;Samples;Min_cycle;Max_cycle;Signal;HPM_P1;HPM_P2
2022/06/01 00:01:51;;;;;;;27.10;25.60;;;14.00;80.20;;;;;;5080111;28;20470;-72
2022/06/01 00:04:19;;;;;;;26.43;24.93;;;13.90;80.10;;;;;;5078163;28;20544;-72
2022/06/01 00:06:46;;;;;;;26.30;24.83;;;13.90;80.10;;;;;;5079070;28;20469;-76
2022/06/01 00:09:13;;;;;;;27.40;25.80;;;13.90;79.90;;;;;;5091200;28;20469;-72
2022/06/01 00:11:40;;;;;;;28.70;27.10;;;13.90;79.70;;;;;;5088201;28;20461;-75
2022/06/01 00:14:08;;;;;;;27.90;26.40;;;13.80;79.70;;;;;;5080371;28;20450;-73
2022/06/01 00:16:35;;;;;;;28.20;26.43;;;13.80;79.70;;;;;;5089616;28;20505;-75
2022/06/01 00:19:03;;;;;;;27.47;25.97;;;13.80;79.60;;;;;;5083462;28;21142;-70
2022/06/01 00:21:30;;;;;;;27.70;26.10;;;13.80;79.50;;;;;;5090883;28;20457;-71
2022/06/01 00:23:57;;;;;;;26.80;25.40;;;13.80;79.50;;;;;;5077869;28;20479;-70
2022/06/01 00:26:23;;;;;;;26.83;25.37;;;13.90;79.10;;;;;;5088442;28;20481;-71
2022/06/01 00:28:50;;;;;;;27.10;25.70;;;13.90;79.30;;;;;;5080230;28;20472;-71
2022/06/01 00:31:17;;;;;;;27.37;25.70;;;13.80;79.50;;;;;;5083934;28;20538;-70
2022/06/01 00:33:44;;;;;;;26.60;25.20;;;13.80;79.90;;;;;;5090283;28;20456;-70
2022/06/01 00:36:12;;;;;;;28.50;26.90;;;13.80;79.80;;;;;;5085002;28;20469;-70
2022/06/01 00:38:39;;;;;;;28.30;26.70;;;13.70;80.00;;;;;;5084976;28;20836;-70
2022/06/01 00:41:06;;;;;;;27.17;25.47;;;13.70;79.90;;;;;;5083563;28;20461;-70
2022/06/01 00:43:44;;;;;;;25.97;24.47;;;13.70;79.90;;;;;;5087905;28;20473;-70
2022/06/01 00:46:11;;;;;;;26.80;25.40;;;13.70;79.90;;;;;;5089924;28;20465;-71
2022/06/01 00:48:43;;;;;;;27.20;25.70;;;13.60;79.70;;;;;;5084619;28;20570;-70
2022/06/01 00:51:14;;;;;;;27.00;25.40;;;13.60;79.30;;;;;;5079017;28;20470;-70
2022/06/01 00:53:43;;;;;;;27.80;26.10;;;13.60;79.20;;;;;;5080103;28;20461;-70
2022/06/01 00:56:15;;;;;;;27.30;25.50;;;13.60;79.20;;;;;;5083797;28;20478;-71
2022/06/01 00:58:44;;;;;;;27.13;25.63;;;13.70;79.20;;;;;;5083239;28;20466;-70
2022/06/01 01:01:14;;;;;;;27.90;26.40;;;13.60;79.30;;;;;;5087511;28;20458;-70
2022/06/01 01:03:43;;;;;;;28.43;26.60;;;13.60;79.30;;;;;;5079197;28;20481;-70
2022/06/01 01:06:14;;;;;;;27.47;26.03;;;13.60;79.20;;;;;;5079380;28;20481;-70
2022/06/01 01:08:42;;;;;;;28.90;27.20;;;13.60;79.60;;;;;;5081309;28;20458;-70
2022/06/01 01:11:10;;;;;;;27.83;26.13;;;13.50;79.90;;;;;;5084951;28;20457;-70
2022/06/01 01:13:39;;;;;;;27.07;25.57;;;13.50;79.70;;;;;;5079592;28;20940;-70
2022/06/01 01:16:07;;;;;;;28.20;26.60;;;13.50;79.70;;;;;;5090103;28;20552;-70
2022/06/01 01:18:41;;;;;;;28.40;26.87;;;13.50;79.70;;;;;;5082892;28;20449;-70
2022/06/01 01:21:19;;;;;;;26.70;25.30;;;13.40;79.70;;;;;;5081860;28;20457;-70
2022/06/01 01:23:54;;;;;;;27.37;25.70;;;13.50;79.60;;;;;;5082357;28;21028;-70
2022/06/01 01:26:24;;;;;;;28.03;26.43;;;13.40;79.50;;;;;;5088518;28;20977;-70
2022/06/01 01:28:52;;;;;;;27.07;25.67;;;13.40;79.50;;;;;;5089009;28;20460;-70
2022/06/01 01:31:21;;;;;;;27.00;25.50;;;13.40;79.70;;;;;;5084062;28;21026;-70
2022/06/01 01:33:50;;;;;;;26.60;25.27;;;13.40;79.50;;;;;;5081321;28;20460;-70
2022/06/01 01:36:21;;;;;;;26.90;25.40;;;13.40;79.30;;;;;;5087930;28;20481;-70
2022/06/01 01:38:53;;;;;;;27.30;25.73;;;13.40;79.30;;;;;;5079616;28;20488;-71
2022/06/01 01:41:27;;;;;;;26.30;24.90;;;13.40;79.10;;;;;;5085028;28;20580;-71
2022/06/01 01:44:00;;;;;;;26.90;25.30;;;13.40;79.10;;;;;;5081129;28;20476;-72
2022/06/01 01:46:28;;;;;;;26.30;24.90;;;13.40;78.80;;;;;;5078831;28;20474;-72
2022/06/01 01:48:55;;;;;;;26.13;24.63;;;13.40;78.60;;;;;;5077055;28;20461;-72
2022/06/01 01:51:23;;;;;;;26.60;25.20;;;13.40;78.70;;;;;;5086175;28;20457;-72
2022/06/01 01:53:51;;;;;;;27.03;25.43;;;13.40;78.60;;;;;;5086742;28;20839;-74
2022/06/01 01:56:28;;;;;;;27.13;25.53;;;13.40;78.30;;;;;;5084204;28;20496;-73
2022/06/01 01:59:19;;;;;;;27.43;25.87;;;13.40;78.20;;;;;;5087867;28;20465;-73
2022/06/01 02:01:52;;;;;;;26.87;25.27;;;13.40;78.00;;;;;;5079421;28;20465;-72
2022/06/01 02:07:18;;;;;;;26.50;24.90;;;13.30;78.20;;;;;;5076854;28;20647;-77
2022/06/01 02:12:42;;;;;;;26.33;24.93;;;13.30;78.20;;;;;;5085463;28;20452;-70
2022/06/01 02:15:13;;;;;;;25.20;23.90;;;13.30;78.30;;;;;;5082541;28;20561;-71
2022/06/01 02:17:49;;;;;;;26.77;25.17;;;13.40;78.30;;;;;;5085536;28;20459;-73
2022/06/01 02:20:30;;;;;;;27.20;25.70;;;13.30;78.80;;;;;;5094728;28;20452;-75
2022/06/01 02:22:57;;;;;;;25.93;24.63;;;13.20;79.00;;;;;;5076824;28;20567;-72
2022/06/01 02:25:25;;;;;;;26.20;24.80;;;13.20;78.90;;;;;;5081518;28;20476;-72
2022/06/01 02:27:57;;;;;;;26.80;25.30;;;13.20;78.80;;;;;;5078075;28;20462;-73
2022/06/01 02:30:26;;;;;;;26.83;25.33;;;13.10;79.40;;;;;;5084119;28;20468;-73
2022/06/01 02:32:55;;;;;;;27.40;25.80;;;13.10;79.50;;;;;;5078935;28;20450;-72
2022/06/01 02:35:25;;;;;;;28.23;26.67;;;13.10;79.50;;;;;;5093431;28;20470;-72
2022/06/01 02:37:55;;;;;;;30.00;28.40;;;13.00;79.60;;;;;;5078653;28;20481;-75
2022/06/01 02:40:25;;;;;;;26.57;25.10;;;13.10;79.40;;;;;;5080202;28;20541;-72
2022/06/01 02:42:54;;;;;;;26.90;25.40;;;13.10;79.40;;;;;;5077550;28;21120;-72
2022/06/01 02:45:23;;;;;;;26.50;25.00;;;13.00;79.60;;;;;;5073190;28;20472;-74
2022/06/01 02:47:53;;;;;;;27.20;25.60;;;13.00;79.90;;;;;;5085637;28;20951;-75
2022/06/01 02:50:24;;;;;;;26.80;25.30;;;12.90;80.00;;;;;;5078401;28;20461;-72
2022/06/01 02:52:51;;;;;;;28.63;27.03;;;12.90;80.00;;;;;;5076780;28;20477;-72
2022/06/01 02:55:21;;;;;;;26.43;24.83;;;12.80;80.50;;;;;;5079393;28;20492;-72
2022/06/01 02:57:49;;;;;;;26.40;24.90;;;12.70;81.00;;;;;;5078710;28;20449;-72
2022/06/01 03:00:22;;;;;;;25.93;24.53;;;12.70;81.20;;;;;;5071889;28;20560;-73
2022/06/01 03:02:51;;;;;;;27.43;25.90;;;12.60;81.20;;;;;;5076264;28;20477;-72
2022/06/01 03:05:20;;;;;;;26.97;25.37;;;12.70;81.10;;;;;;5086620;28;20485;-72
2022/06/01 03:07:47;;;;;;;30.40;28.70;;;12.60;81.20;;;;;;5077880;28;20458;-73
2022/06/01 03:10:14;;;;;;;28.87;27.17;;;12.60;81.60;;;;;;5082309;28;20591;-72
2022/06/01 03:12:41;;;;;;;27.13;25.53;;;12.60;81.70;;;;;;5080696;28;20900;-73
2022/06/01 03:15:11;;;;;;;28.20;26.60;;;12.60;81.60;;;;;;5083085;28;20474;-72
2022/06/01 03:17:40;;;;;;;28.00;26.30;;;12.60;81.70;;;;;;5088922;28;20450;-70
2022/06/01 03:20:08;;;;;;;27.97;26.37;;;12.50;81.80;;;;;;5084280;28;20961;-70
2022/06/01 03:22:35;;;;;;;26.83;25.33;;;12.50;82.10;;;;;;5074988;28;20458;-70
2022/06/01 03:25:02;;;;;;;28.90;27.20;;;12.50;81.90;;;;;;5082477;28;20479;-70
2022/06/01 03:27:29;;;;;;;28.90;27.20;;;12.50;81.90;;;;;;5082107;28;20466;-71
2022/06/01 03:29:56;;;;;;;28.70;27.10;;;12.50;81.90;;;;;;5087350;28;20929;-70
2022/06/01 03:32:23;;;;;;;29.50;27.83;;;12.50;82.10;;;;;;5085034;28;20847;-71
2022/06/01 03:34:51;;;;;;;26.30;24.80;;;12.50;82.10;;;;;;5090561;28;20446;-72
2022/06/01 03:37:18;;;;;;;26.20;24.60;;;12.50;82.00;;;;;;5085706;28;21295;-72
2022/06/01 03:39:45;;;;;;;29.23;27.53;;;12.50;81.90;;;;;;5087967;28;20870;-71
2022/06/01 03:42:12;;;;;;;26.40;24.90;;;12.50;81.80;;;;;;5089891;28;20457;-72
2022/06/01 03:47:24;;;;;;;27.93;26.33;;;12.50;82.20;;;;;;5082435;28;20602;-72
2022/06/01 03:49:52;;;;;;;27.83;26.13;;;12.50;82.10;;;;;;5087546;28;20536;-72
2022/06/01 03:52:19;;;;;;;28.30;26.70;;;12.50;82.40;;;;;;5089297;28;20464;-72
2022/06/01 03:54:46;;;;;;;27.20;25.60;;;12.60;82.20;;;;;;5075790;28;20535;-72
2022/06/01 03:57:13;;;;;;;26.80;25.30;;;12.70;82.30;;;;;;5085780;28;20468;-72
2022/06/01 03:59:40;;;;;;;28.90;27.30;;;12.90;81.60;;;;;;5083633;28;20472;-72
2022/06/01 04:02:08;;;;;;;28.13;26.50;;;13.00;81.00;;;;;;5084232;28;20580;-72
2022/06/01 04:04:36;;;;;;;27.97;26.47;;;13.10;80.70;;;;;;5085354;28;20891;-74
2022/06/01 04:07:05;;;;;;;29.47;27.77;;;13.10;80.50;;;;;;5087210;28;20562;-72
2022/06/01 04:09:32;;;;;;;29.83;28.23;;;13.20;80.50;;;;;;5085339;28;20556;-72
2022/06/01 04:11:59;;;;;;;27.57;25.97;;;13.20;80.20;;;;;;5085217;28;20527;-72
2022/06/01 04:14:26;;;;;;;28.60;27.00;;;13.30;80.00;;;;;;5087025;28;20468;-70
2022/06/01 04:16:53;;;;;;;29.63;27.93;;;13.30;80.00;;;;;;5084028;28;20489;-70
2022/06/01 04:19:20;;;;;;;28.57;26.87;;;13.40;79.90;;;;;;5083772;28;20462;-70
2022/06/01 04:21:50;;;;;;;29.47;27.63;;;13.40;79.90;;;;;;5084532;28;20464;-70
2022/06/01 04:24:22;;;;;;;27.73;26.20;;;13.60;79.40;;;;;;5084524;28;20576;-70
2022/06/01 04:26:49;;;;;;;27.63;26.03;;;13.60;79.30;;;;;;5077064;28;20553;-70
2022/06/01 04:29:16;;;;;;;28.30;26.67;;;13.70;79.00;;;;;;5088669;28;20457;-70
2022/06/01 04:31:43;;;;;;;27.50;26.00;;;13.70;79.00;;;;;;5082575;28;20458;-70
2022/06/01 04:34:10;;;;;;;26.87;25.37;;;13.70;79.00;;;;;;5082798;28;20450;-70
2022/06/01 04:36:37;;;;;;;26.30;24.90;;;13.70;79.20;;;;;;5082093;28;20485;-70
2022/06/01 04:39:06;;;;;;;28.00;26.40;;;13.70;79.30;;;;;;5068405;28;20959;-71
2022/06/01 04:41:35;;;;;;;25.70;24.10;;;13.80;79.10;;;;;;5079611;28;20461;-70
2022/06/01 04:44:01;;;;;;;28.27;26.53;;;13.80;79.00;;;;;;5078805;28;20478;-70
2022/06/01 04:46:28;;;;;;;29.03;27.43;;;13.90;79.00;;;;;;5089750;28;20481;-70
2022/06/01 04:48:55;;;;;;;29.70;27.80;;;14.00;78.60;;;;;;5088833;28;20452;-71
2022/06/01 04:51:22;;;;;;;27.03;25.07;;;14.00;78.60;;;;;;5083944;28;20450;-70
2022/06/01 04:53:49;;;;;;;26.77;25.27;;;14.20;78.30;;;;;;5080761;28;21137;-70
2022/06/01 04:56:16;;;;;;;26.17;24.77;;;14.20;77.90;;;;;;5082769;28;20486;-71
2022/06/01 04:58:44;;;;;;;27.50;25.90;;;14.20;78.10;;;;;;5085596;28;20457;-71
2022/06/01 05:01:11;;;;;;;28.80;27.10;;;14.30;78.20;;;;;;5078294;28;20462;-74
2022/06/01 05:03:38;;;;;;;26.20;24.50;;;14.40;78.00;;;;;;5088147;28;20835;-69
2022/06/01 05:06:05;;;;;;;29.70;27.80;;;14.50;77.90;;;;;;5078667;28;20852;-71
2022/06/01 05:08:31;;;;;;;28.07;26.37;;;14.50;77.90;;;;;;5078570;28;20460;-72
2022/06/01 05:10:58;;;;;;;28.20;26.50;;;14.70;77.70;;;;;;5083399;28;20557;-70
2022/06/01 05:13:25;;;;;;;27.30;25.70;;;14.80;77.50;;;;;;5082080;28;20537;-70
2022/06/01 05:15:55;;;;;;;25.53;23.83;;;14.80;77.80;;;;;;5082219;28;20463;-68
2022/06/01 05:18:23;;;;;;;26.83;25.20;;;15.00;77.20;;;;;;5084657;28;20545;-68
2022/06/01 05:20:50;;;;;;;28.60;26.90;;;15.00;77.20;;;;;;5071730;28;20458;-69
2022/06/01 05:23:17;;;;;;;28.17;26.27;;;15.10;77.30;;;;;;5083844;28;20561;-69
2022/06/01 05:25:45;;;;;;;27.27;25.67;;;15.30;76.90;;;;;;5084429;28;20477;-69
2022/06/01 05:28:12;;;;;;;27.50;26.00;;;15.30;76.80;;;;;;5070949;28;20465;-69
2022/06/01 05:30:39;;;;;;;26.03;24.53;;;15.50;76.70;;;;;;5083622;28;21040;-69
2022/06/01 05:33:08;;;;;;;27.60;25.60;;;15.60;76.30;;;;;;5086543;28;20468;-68
2022/06/01 05:35:35;;;;;;;32.27;30.50;;;15.70;76.10;;;;;;5085499;28;20481;-69
2022/06/01 05:38:02;;;;;;;27.30;25.70;;;15.90;75.60;;;;;;5077539;28;20466;-68
2022/06/01 05:40:30;;;;;;;27.50;25.90;;;16.10;75.10;;;;;;5076316;28;20581;-70
2022/06/01 05:42:57;;;;;;;28.80;27.10;;;16.20;75.10;;;;;;5085253;28;20951;-70
2022/06/01 05:45:25;;;;;;;27.87;25.97;;;16.40;74.80;;;;;;5080984;28;20485;-72
2022/06/01 05:47:52;;;;;;;28.47;26.63;;;16.50;74.30;;;;;;5082258;28;20489;-70
2022/06/01 05:50:20;;;;;;;27.03;25.43;;;16.60;74.30;;;;;;5081707;28;20533;-71
2022/06/01 05:52:47;;;;;;;27.97;26.37;;;16.80;73.80;;;;;;5087991;28;20464;-70
2022/06/01 05:55:14;;;;;;;26.97;25.37;;;16.90;73.40;;;;;;5083643;28;20486;-71
2022/06/01 05:57:41;;;;;;;27.97;26.27;;;17.00;73.00;;;;;;5083711;28;21006;-71
2022/06/01 06:00:11;;;;;;;28.50;26.90;;;17.10;72.60;;;;;;5082877;28;20500;-71
2022/06/01 06:02:39;;;;;;;28.50;26.80;;;17.30;72.60;;;;;;5076860;28;20462;-70
2022/06/01 06:06:11;;;;;;;33.10;31.40;;;17.30;71.60;;;;;;5075447;28;20473;-71
2022/06/01 06:07:56;;;;;;;28.17;26.57;;;17.40;71.40;;;;;;5083077;28;20446;-70
2022/06/01 06:10:23;;;;;;;27.70;26.10;;;17.60;71.10;;;;;;5078560;28;20465;-71
2022/06/01 06:12:51;;;;;;;27.90;26.10;;;17.70;70.60;;;;;;5082160;28;20465;-72
2022/06/01 06:15:19;;;;;;;29.50;27.80;;;17.70;70.50;;;;;;5086997;28;20481;-70
2022/06/01 06:17:46;;;;;;;29.33;27.37;;;17.80;70.40;;;;;;5076191;28;20756;-69
2022/06/01 06:20:14;;;;;;;28.60;27.00;;;17.90;70.20;;;;;;5078215;28;20464;-70
2022/06/01 06:22:42;;;;;;;28.47;26.87;;;17.90;70.00;;;;;;5077786;28;20947;-70
2022/06/01 06:25:10;;;;;;;29.37;27.57;;;18.00;69.90;;;;;;5087681;28;20485;-70
2022/06/01 06:27:37;;;;;;;28.00;26.40;;;18.10;69.80;;;;;;5070710;28;21231;-72
2022/06/01 06:30:05;;;;;;;27.40;25.90;;;18.30;68.90;;;;;;5095836;28;20454;-71
2022/06/01 06:32:32;;;;;;;28.33;26.63;;;18.30;68.80;;;;;;5077299;28;20458;-70
2022/06/01 06:34:59;;;;;;;27.67;26.03;;;18.30;69.00;;;;;;5085657;28;20473;-69
2022/06/01 06:37:26;;;;;;;28.37;26.67;;;18.40;68.90;;;;;;5083754;28;20456;-69
2022/06/01 06:39:53;;;;;;;28.20;26.60;;;18.50;68.50;;;;;;5083801;28;20549;-70
2022/06/01 06:42:21;;;;;;;28.83;27.23;;;18.60;68.20;;;;;;5081050;28;20465;-70
2022/06/01 06:44:48;;;;;;;29.83;27.93;;;18.70;67.70;;;;;;5083864;28;20470;-70
2022/06/01 06:47:16;;;;;;;29.27;27.43;;;18.80;67.10;;;;;;5083070;28;20457;-69
2022/06/01 06:49:43;;;;;;;29.17;27.37;;;19.00;66.80;;;;;;5083958;28;20442;-70
2022/06/01 06:52:10;;;;;;;28.23;26.53;;;19.00;66.80;;;;;;5079023;28;20457;-69
2022/06/01 06:54:37;;;;;;;28.07;26.50;;;19.20;66.00;;;;;;5082767;28;20955;-70
2022/06/01 06:57:04;;;;;;;31.70;29.90;;;19.30;65.70;;;;;;5080324;28;20474;-69
2022/06/01 06:59:32;;;;;;;28.87;27.07;;;19.40;65.10;;;;;;5083437;28;21139;-73
2022/06/01 07:01:59;;;;;;;30.70;28.57;;;19.40;65.20;;;;;;5076927;28;20485;-73
2022/06/01 07:04:26;;;;;;;29.50;27.87;;;19.50;64.70;;;;;;5080872;28;20484;-71
2022/06/01 07:06:53;;;;;;;29.93;28.07;;;19.60;64.50;;;;;;5084062;28;20479;-72
2022/06/01 07:09:20;;;;;;;28.20;26.47;;;19.70;64.50;;;;;;5083290;28;21187;-75
2022/06/01 07:11:47;;;;;;;28.10;26.40;;;19.70;64.80;;;;;;5080353;28;20485;-73
2022/06/01 07:14:14;;;;;;;27.13;25.50;;;19.90;63.90;;;;;;5083729;28;20457;-74
2022/06/01 07:16:42;;;;;;;28.17;26.13;;;20.00;63.20;;;;;;5077391;28;20492;-73
2022/06/01 07:19:09;;;;;;;27.80;26.20;;;20.00;62.70;;;;;;5083609;28;20466;-71
2022/06/01 07:21:36;;;;;;;28.90;27.20;;;20.00;62.40;;;;;;5075936;28;20542;-71
2022/06/01 07:24:05;;;;;;;27.53;26.03;;;20.10;61.70;;;;;;5075051;28;20957;-73
2022/06/01 07:26:34;;;;;;;29.50;27.67;;;20.20;61.50;;;;;;5080716;28;20477;-69
2022/06/01 07:29:02;;;;;;;29.63;27.67;;;20.30;60.80;;;;;;5074056;28;20483;-72
2022/06/01 07:31:29;;;;;;;28.67;27.07;;;20.40;60.40;;;;;;5082919;28;20492;-70
2022/06/01 07:33:59;;;;;;;29.97;28.27;;;20.40;60.20;;;;;;5089962;28;20961;-70
2022/06/01 07:36:27;;;;;;;28.30;26.70;;;20.40;60.10;;;;;;5089584;28;20481;-70
2022/06/01 07:44:29;;;;;;;29.37;27.50;;;20.60;59.40;;;;;;5079868;28;20604;-73
2022/06/01 07:46:56;;;;;;;30.10;28.20;;;20.70;59.20;;;;;;5082914;28;20474;-73
2022/06/01 07:49:25;;;;;;;31.50;29.70;;;20.70;58.90;;;;;;5081227;28;20528;-70
2022/06/01 07:51:53;;;;;;;30.10;28.20;;;20.80;58.70;;;;;;5085383;28;20461;-70
2022/06/01 07:54:21;;;;;;;28.80;27.00;;;21.00;58.20;;;;;;5083533;28;20451;-71
2022/06/01 07:56:48;;;;;;;28.90;27.20;;;21.20;57.60;;;;;;5085017;28;20476;-71
2022/06/01 07:59:15;;;;;;;29.37;27.67;;;21.20;56.80;;;;;;5078975;28;20986;-76
2022/06/01 08:01:42;;;;;;;30.57;28.57;;;21.30;57.10;;;;;;5080659;27;20472;-72
2022/06/01 08:04:10;;;;;;;28.67;26.87;;;21.30;57.30;;;;;;5085977;28;20947;-71
2022/06/01 08:06:40;;;;;;;30.07;27.97;;;21.40;57.20;;;;;;5082430;28;20489;-74
2022/06/01 08:09:08;;;;;;;28.27;26.63;;;21.50;57.40;;;;;;5077217;28;20466;-71
2022/06/01 08:14:20;;;;;;;28.37;26.63;;;21.70;57.60;;;;;;5077678;28;20477;-73
2022/06/01 08:16:48;;;;;;;29.57;27.83;;;21.80;54.30;;;;;;5084203;28;20557;-71
2022/06/01 08:19:16;;;;;;;30.10;28.40;;;21.80;51.60;;;;;;5087656;28;21282;-71
2022/06/01 08:21:45;;;;;;;29.80;28.10;;;21.90;51.30;;;;;;5085205;28;20470;-71
2022/06/01 08:24:13;;;;;;;27.57;26.00;;;22.20;50.50;;;;;;5087736;28;20453;-72
2022/06/01 08:26:39;;;;;;;28.47;26.67;;;22.30;48.30;;;;;;5076375;28;20589;-73
2022/06/01 08:29:07;;;;;;;27.00;25.50;;;22.40;47.60;;;;;;5089280;28;20542;-73
2022/06/01 08:31:35;;;;;;;27.40;25.60;;;22.50;46.70;;;;;;5080415;28;20948;-69
2022/06/01 08:34:04;;;;;;;30.00;28.00;;;22.60;46.40;;;;;;5076864;28;20464;-68
2022/06/01 08:36:31;;;;;;;29.27;27.30;;;22.70;45.50;;;;;;5080029;28;20481;-68
2022/06/01 08:39:00;;;;;;;27.50;26.00;;;22.90;44.90;;;;;;5081794;28;20453;-69
2022/06/01 08:41:32;;;;;;;27.97;26.27;;;23.00;44.40;;;;;;5079517;28;20465;-69
2022/06/01 08:44:01;;;;;;;29.70;27.90;;;23.00;44.60;;;;;;5085498;28;20461;-68
2022/06/01 08:46:30;;;;;;;29.93;28.23;;;23.20;44.70;;;;;;5084155;28;20485;-69
2022/06/01 08:49:00;;;;;;;29.07;27.20;;;23.40;45.30;;;;;;5086892;28;20455;-69
2022/06/01 08:51:30;;;;;;;30.93;29.03;;;23.60;46.00;;;;;;5078653;28;20526;-69
2022/06/01 08:53:58;;;;;;;27.77;26.17;;;23.80;44.80;;;;;;5093149;28;20456;-69
2022/06/01 08:56:34;;;;;;;28.60;27.00;;;23.50;45.20;;;;;;5083988;28;20558;-69
2022/06/01 08:59:11;;;;;;;28.47;26.60;;;23.50;45.70;;;;;;5086610;28;20499;-69
2022/06/01 09:01:44;;;;;;;31.53;29.73;;;23.60;45.70;;;;;;5083218;28;20486;-69
2022/06/01 09:04:28;;;;;;;29.37;27.67;;;23.80;45.70;;;;;;5082586;28;20450;-69
2022/06/01 09:07:03;;;;;;;31.47;29.57;;;23.50;46.10;;;;;;5086659;28;20899;-69
2022/06/01 09:09:40;;;;;;;30.53;28.80;;;23.20;45.70;;;;;;5084092;28;20464;-69
2022/06/01 09:12:09;;;;;;;29.50;27.83;;;22.70;45.30;;;;;;5088320;28;20471;-69
2022/06/01 09:14:40;;;;;;;29.50;27.90;;;22.80;46.80;;;;;;5081417;28;20468;-69
2022/06/01 09:17:07;;;;;;;30.23;28.40;;;22.60;47.60;;;;;;5085222;28;20456;-72
2022/06/01 09:25:02;;;;;;;29.27;27.57;;;22.30;48.70;;;;;;5070106;28;20619;-69
2022/06/01 09:27:38;;;;;;;29.67;27.97;;;22.00;50.00;;;;;;5084570;28;20464;-68
2022/06/01 09:30:21;;;;;;;31.70;29.80;;;22.10;50.10;;;;;;5083577;28;20487;-69
2022/06/01 09:33:03;;;;;;;29.87;28.20;;;22.40;49.60;;;;;;5085646;28;20540;-69
2022/06/01 09:35:34;;;;;;;29.17;27.47;;;22.70;49.50;;;;;;5088496;28;20565;-69
2022/06/01 09:38:04;;;;;;;31.10;29.10;;;22.90;48.50;;;;;;5082474;28;20456;-69
2022/06/01 09:40:34;;;;;;;31.13;29.07;;;23.20;48.60;;;;;;5084530;28;20463;-69
2022/06/01 09:43:02;;;;;;;30.00;28.20;;;23.10;48.30;;;;;;5085355;28;20579;-69
2022/06/01 09:45:33;;;;;;;30.30;28.50;;;23.30;47.70;;;;;;5087896;28;20477;-70
2022/06/01 09:48:12;;;;;;;28.57;26.73;;;23.50;46.20;;;;;;5074323;28;20494;-73
2022/06/01 09:50:44;;;;;;;29.70;27.80;;;23.50;45.50;;;;;;5078841;28;20953;-72
2022/06/01 09:53:21;;;;;;;27.23;25.73;;;22.80;42.00;;;;;;5082398;28;20463;-71
2022/06/01 09:55:53;;;;;;;27.83;26.30;;;22.80;43.90;;;;;;5075685;28;21021;-71
2022/06/01 10:07:00;;;;;;;28.10;26.60;;;23.70;40.70;;;;;;5060247;28;20539;-73
2022/06/01 10:09:29;;;;;;;28.33;26.77;;;24.20;39.60;;;;;;5081690;28;20997;-73
2022/06/01 10:11:58;;;;;;;26.80;25.30;;;24.60;38.10;;;;;;5083420;28;20456;-69
2022/06/01 10:14:31;;;;;;;27.30;25.70;;;24.80;38.00;;;;;;5088863;28;20538;-70
2022/06/01 10:17:16;;;;;;;26.63;25.17;;;24.90;37.80;;;;;;5070753;28;20480;-71
2022/06/01 10:19:47;;;;;;;28.87;27.07;;;25.20;37.10;;;;;;5083874;28;20969;-71
2022/06/01 10:22:28;;;;;;;27.50;25.90;;;25.20;37.90;;;;;;5079704;28;20465;-70
2022/06/01 10:25:02;;;;;;;29.27;27.63;;;25.30;38.10;;;;;;5074731;28;20459;-71
2022/06/01 10:27:32;;;;;;;28.57;26.93;;;25.40;37.50;;;;;;5077839;28;20450;-74
2022/06/01 10:30:12;;;;;;;27.70;26.20;;;25.20;36.10;;;;;;5080456;28;20459;-71
2022/06/01 10:32:47;;;;;;;28.40;26.80;;;25.00;36.40;;;;;;5081391;28;20459;-72
2022/06/01 10:35:30;;;;;;;27.30;25.50;;;24.80;35.30;;;;;;5077708;28;20476;-71
2022/06/01 10:38:04;;;;;;;27.60;26.00;;;24.50;35.90;;;;;;5080787;28;20517;-73
2022/06/01 10:40:38;;;;;;;27.47;25.87;;;24.10;36.10;;;;;;5076606;28;20575;-71
2022/06/01 10:43:19;;;;;;;27.70;25.83;;;23.80;37.00;;;;;;5075471;28;21157;-71
2022/06/01 10:45:53;;;;;;;27.10;25.50;;;23.80;36.80;;;;;;5075339;28;21195;-74
2022/06/01 10:48:26;;;;;;;28.73;27.03;;;23.80;37.50;;;;;;5080141;28;20467;-72
2022/06/01 10:51:00;;;;;;;27.20;25.60;;;24.10;37.90;;;;;;5076913;28;20455;-72
2022/06/01 10:53:42;;;;;;;26.63;24.77;;;24.40;37.50;;;;;;5084286;28;20474;-71
2022/06/01 10:56:10;;;;;;;27.93;26.33;;;24.60;37.70;;;;;;5085334;28;21038;-72
2022/06/01 10:58:37;;;;;;;27.70;25.90;;;24.70;37.50;;;;;;5086900;28;20488;-71
2022/06/01 11:01:10;;;;;;;30.03;28.40;;;24.80;37.10;;;;;;5087340;28;20566;-75
2022/06/01 11:03:58;;;;;;;29.83;27.93;;;24.90;37.30;;;;;;5088232;28;20461;-73
2022/06/01 11:06:48;;;;;;;30.27;28.57;;;25.10;37.20;;;;;;5082350;28;20487;-70
2022/06/01 11:09:22;;;;;;;29.33;27.63;;;25.20;36.10;;;;;;5078180;28;20468;-71
2022/06/01 11:11:56;;;;;;;28.43;26.83;;;24.90;37.00;;;;;;5075864;28;20487;-72
2022/06/01 11:14:37;;;;;;;27.60;26.03;;;24.80;36.40;;;;;;5085731;28;20466;-71
2022/06/01 11:17:15;;;;;;;29.83;28.03;;;24.60;36.50;;;;;;5088125;28;20461;-71
2022/06/01 11:19:54;;;;;;;27.17;25.67;;;24.40;36.90;;;;;;5082415;28;20467;-71
2022/06/01 11:22:39;;;;;;;29.23;27.63;;;24.50;36.90;;;;;;5071927;28;20465;-75
2022/06/01 11:25:18;;;;;;;30.00;28.50;;;24.60;37.00;;;;;;5073762;28;20845;-71
2022/06/01 11:28:07;;;;;;;29.00;27.40;;;24.70;37.70;;;;;;5087854;28;20896;-71
2022/06/01 11:30:46;;;;;;;30.83;29.10;;;25.00;38.00;;;;;;5082909;28;21394;-74
2022/06/01 11:33:24;;;;;;;29.57;27.53;;;25.30;37.10;;;;;;5086235;28;20464;-68
2022/06/01 11:35:55;;;;;;;28.20;26.40;;;25.30;37.00;;;;;;5082069;28;20479;-68
2022/06/01 11:38:27;;;;;;;28.20;26.70;;;25.00;36.20;;;;;;5077570;28;20445;-69
2022/06/01 11:40:58;;;;;;;29.80;28.00;;;24.40;37.00;;;;;;5087898;28;20459;-68
2022/06/01 11:43:29;;;;;;;28.17;26.43;;;24.00;37.10;;;;;;5088237;28;20452;-70
2022/06/01 11:46:02;;;;;;;30.17;28.47;;;24.00;37.60;;;;;;5089815;28;21673;-71
2022/06/01 11:48:33;;;;;;;28.20;26.60;;;24.30;38.10;;;;;;5085413;28;20981;-70
2022/06/01 11:51:14;;;;;;;28.20;26.70;;;24.70;37.90;;;;;;5086188;28;20458;-73
2022/06/01 11:53:55;;;;;;;27.23;25.73;;;25.20;37.20;;;;;;5089100;28;20467;-73
2022/06/01 11:56:25;;;;;;;30.37;28.27;;;25.60;36.20;;;;;;5086901;28;20485;-75
2022/06/01 11:59:22;;;;;;;29.07;27.27;;;26.00;35.90;;;;;;5081001;28;20455;-74
2022/06/01 12:01:53;;;;;;;29.33;27.63;;;26.30;36.20;;;;;;5085116;28;20455;-76
2022/06/01 12:04:33;;;;;;;28.10;26.43;;;26.40;33.80;;;;;;5090077;28;20581;-74
2022/06/01 12:07:10;;;;;;;27.87;26.17;;;26.00;34.50;;;;;;5090976;28;20475;-76
2022/06/01 12:09:48;;;;;;;30.63;29.03;;;26.10;35.00;;;;;;5083945;28;20473;-73
2022/06/01 12:12:27;;;;;;;28.37;26.67;;;26.50;34.40;;;;;;5090925;28;20461;-75
2022/06/01 12:15:00;;;;;;;27.87;26.27;;;26.20;34.70;;;;;;5089399;28;20464;-73
2022/06/01 12:17:35;;;;;;;27.97;26.17;;;26.40;35.10;;;;;;5079801;28;20445;-69
2022/06/01 12:20:45;;;;;;;45.37;33.03;;;26.70;35.30;;;;;;5082482;28;20471;-71
2022/06/01 12:29:52;;;;;;;29.57;27.67;;;26.80;34.10;;;;;;5083739;28;20519;-73
2022/06/01 12:32:20;;;;;;;28.67;26.87;;;26.40;34.10;;;;;;5087304;28;20487;-72
2022/06/01 12:35:08;;;;;;;27.60;26.03;;;26.70;35.10;;;;;;5080566;28;20462;-73
2022/06/01 12:37:45;;;;;;;28.93;27.23;;;26.10;35.30;;;;;;5086608;28;20840;-70
2022/06/01 12:40:15;;;;;;;28.33;26.70;;;25.80;35.80;;;;;;5087853;28;20452;-70
2022/06/01 12:42:46;;;;;;;28.70;27.00;;;25.70;35.90;;;;;;5087451;28;20464;-69
2022/06/01 12:45:18;;;;;;;30.93;29.03;;;25.50;37.00;;;;;;5087927;28;20615;-70
2022/06/01 12:47:52;;;;;;;30.67;28.33;;;25.50;37.20;;;;;;5084856;28;20588;-69
2022/06/01 12:50:22;;;;;;;26.93;25.43;;;25.00;38.00;;;;;;5077602;28;20730;-69
2022/06/01 12:53:09;;;;;;;28.10;26.40;;;25.20;38.40;;;;;;5081767;28;20861;-74
2022/06/01 12:55:36;;;;;;;28.30;26.70;;;25.30;38.10;;;;;;5089260;28;20484;-71
2022/06/01 12:58:13;;;;;;;27.93;26.33;;;25.40;38.20;;;;;;5091800;28;20969;-72
2022/06/01 13:00:46;;;;;;;28.50;26.90;;;25.60;37.80;;;;;;5084734;28;20456;-73
2022/06/01 13:03:14;;;;;;;29.50;27.70;;;25.60;37.60;;;;;;5084831;28;20907;-72
2022/06/01 13:05:46;;;;;;;27.87;26.27;;;25.60;37.80;;;;;;5082522;28;20850;-71
2022/06/01 13:08:19;;;;;;;27.90;26.20;;;25.60;37.80;;;;;;5086514;28;20470;-72
2022/06/01 13:10:47;;;;;;;30.67;28.97;;;25.60;37.90;;;;;;5087519;28;20968;-74
2022/06/01 13:13:18;;;;;;;30.47;28.73;;;25.50;38.30;;;;;;5088605;28;20534;-71
2022/06/01 13:15:54;;;;;;;27.97;26.27;;;25.50;38.20;;;;;;5087204;28;20489;-71
2022/06/01 13:18:27;;;;;;;28.60;27.07;;;25.50;38.50;;;;;;5087187;28;20462;-71
2022/06/01 13:20:59;;;;;;;27.80;26.20;;;25.50;38.80;;;;;;5085288;28;20953;-70
2022/06/01 13:23:30;;;;;;;27.80;26.17;;;25.40;38.60;;;;;;5085486;28;20478;-72